sensor_id;sensor_type;location;lat;lon;timestamp;P1;durP1;ratioP1;P2;durP2;ratioP2
7515;SDS011;3799;47.184;8.538;2023-04-08T00:01:53;4.35;;;1.60;;
7515;SDS011;3799;47.184;8.538;2023-04-08T00:04:21;3.10;;;1.70;;
7515;SDS011;3799;47.184;8.538;2023-04-08T00:06:49;2.97;;;1.60;;
7515;SDS011;3799;47.184;8.538;2023-04-08T00:09:17;3.33;;;1.90;;
7515;SDS011;3799;47.184;8.538;2023-04-08T00:11:44;3.90;;;1.63;;
7515;SDS011;3799;47.184;8.538;2023-04-08T00:14:11;2.40;;;1.40;;
7515;SDS011;3799;47.184;8.538;2023-04-08T00:16:39;2.83;;;1.52;;
7515;SDS011;3799;47.184;8.538;2023-04-08T00:19:07;2.95;;;1.45;;
7515;SDS011;3799;47.184;8.538;2023-04-08T00:24:05;2.65;;;1.33;;
7515;SDS011;3799;47.184;8.538;2023-04-08T00:26:32;3.15;;;1.63;;
7515;SDS011;3799;47.184;8.538;2023-04-08T00:28:59;3.88;;;1.50;;
7515;SDS011;3799;47.184;8.538;2023-04-08T00:31:27;5.28;;;1.50;;
7515;SDS011;3799;47.184;8.538;2023-04-08T00:33:55;3.05;;;1.55;;
7515;SDS011;3799;47.184;8.538;2023-04-08T00:36:23;2.63;;;1.40;;
7515;SDS011;3799;47.184;8.538;2023-04-08T00:38:53;2.80;;;1.40;;
7515;SDS011;3799;47.184;8.538;2023-04-08T00:41:20;3.15;;;1.60;;
7515;SDS011;3799;47.184;8.538;2023-04-08T00:43:51;2.65;;;1.40;;
7515;SDS011;3799;47.184;8.538;2023-04-08T00:46:26;2.60;;;1.70;;
7515;SDS011;3799;47.184;8.538;2023-04-08T00:48:54;3.70;;;1.95;;
7515;SDS011;3799;47.184;8.538;2023-04-08T00:51:22;2.67;;;1.70;;
7515;SDS011;3799;47.184;8.538;2023-04-08T00:53:49;3.78;;;1.23;;
7515;SDS011;3799;47.184;8.538;2023-04-08T00:56:16;2.08;;;1.15;;
7515;SDS011;3799;47.184;8.538;2023-04-08T00:58:46;2.80;;;1.40;;
7515;SDS011;3799;47.184;8.538;2023-04-08T01:01:21;2.80;;;1.40;;
7515;SDS011;3799;47.184;8.538;2023-04-08T01:09:47;3.38;;;1.42;;
7515;SDS011;3799;47.184;8.538;2023-04-08T01:12:23;3.78;;;2.10;;
7515;SDS011;3799;47.184;8.538;2023-04-08T01:14:56;2.95;;;1.58;;
7515;SDS011;3799;47.184;8.538;2023-04-08T01:17:29;3.20;;;1.80;;
7515;SDS011;3799;47.184;8.538;2023-04-08T01:19:59;3.30;;;1.60;;
7515;SDS011;3799;47.184;8.538;2023-04-08T01:25:23;2.53;;;1.42;;
7515;SDS011;3799;47.184;8.538;2023-04-08T01:27:55;3.65;;;1.77;;
7515;SDS011;3799;47.184;8.538;2023-04-08T01:30:25;2.72;;;1.58;;
7515;SDS011;3799;47.184;8.538;2023-04-08T01:32:55;3.63;;;1.63;;
7515;SDS011;3799;47.184;8.538;2023-04-08T01:35:23;3.22;;;1.77;;
7515;SDS011;3799;47.184;8.538;2023-04-08T01:37:52;2.90;;;1.85;;
7515;SDS011;3799;47.184;8.538;2023-04-08T01:40:21;3.53;;;1.95;;
7515;SDS011;3799;47.184;8.538;2023-04-08T01:42:49;4.63;;;1.80;;
7515;SDS011;3799;47.184;8.538;2023-04-08T01:45:21;3.13;;;1.52;;
7515;SDS011;3799;47.184;8.538;2023-04-08T01:47:49;3.55;;;1.90;;
7515;SDS011;3799;47.184;8.538;2023-04-08T01:50:19;3.92;;;2.17;;
7515;SDS011;3799;47.184;8.538;2023-04-08T01:52:48;2.75;;;1.73;;
7515;SDS011;3799;47.184;8.538;2023-04-08T01:55:19;3.38;;;1.73;;
7515;SDS011;3799;47.184;8.538;2023-04-08T01:57:48;3.45;;;1.55;;
7515;SDS011;3799;47.184;8.538;2023-04-08T02:00:20;4.25;;;1.67;;
7515;SDS011;3799;47.184;8.538;2023-04-08T02:02:51;5.15;;;1.80;;
7515;SDS011;3799;47.184;8.538;2023-04-08T02:05:22;3.33;;;1.70;;
7515;SDS011;3799;47.184;8.538;2023-04-08T02:07:50;3.25;;;1.55;;
7515;SDS011;3799;47.184;8.538;2023-04-08T02:10:18;2.92;;;1.27;;
7515;SDS011;3799;47.184;8.538;2023-04-08T02:12:45;3.28;;;1.60;;
7515;SDS011;3799;47.184;8.538;2023-04-08T02:15:14;3.20;;;1.67;;
7515;SDS011;3799;47.184;8.538;2023-04-08T02:17:46;2.92;;;1.40;;
7515;SDS011;3799;47.184;8.538;2023-04-08T02:20:23;2.85;;;1.70;;
7515;SDS011;3799;47.184;8.538;2023-04-08T02:23:13;4.07;;;1.38;;
7515;SDS011;3799;47.184;8.538;2023-04-08T02:25:46;3.83;;;1.80;;
7515;SDS011;3799;47.184;8.538;2023-04-08T02:28:14;2.88;;;1.45;;
7515;SDS011;3799;47.184;8.538;2023-04-08T02:30:47;3.15;;;1.40;;
7515;SDS011;3799;47.184;8.538;2023-04-08T02:33:17;3.17;;;1.42;;
7515;SDS011;3799;47.184;8.538;2023-04-08T02:35:47;5.13;;;1.77;;
7515;SDS011;3799;47.184;8.538;2023-04-08T02:38:17;3.25;;;1.60;;
7515;SDS011;3799;47.184;8.538;2023-04-08T02:40:51;3.78;;;1.48;;
7515;SDS011;3799;47.184;8.538;2023-04-08T02:45:58;3.67;;;1.50;;
7515;SDS011;3799;47.184;8.538;2023-04-08T02:48:30;3.20;;;1.42;;
7515;SDS011;3799;47.184;8.538;2023-04-08T02:50:59;3.67;;;1.77;;
7515;SDS011;3799;47.184;8.538;2023-04-08T02:53:27;5.15;;;1.45;;
7515;SDS011;3799;47.184;8.538;2023-04-08T02:55:57;3.47;;;1.50;;
7515;SDS011;3799;47.184;8.538;2023-04-08T02:58:24;3.03;;;1.35;;
7515;SDS011;3799;47.184;8.538;2023-04-08T03:00:51;2.67;;;1.10;;
7515;SDS011;3799;47.184;8.538;2023-04-08T03:03:19;3.47;;;1.48;;
7515;SDS011;3799;47.184;8.538;2023-04-08T03:05:54;3.08;;;1.50;;
7515;SDS011;3799;47.184;8.538;2023-04-08T03:08:22;2.63;;;1.05;;
7515;SDS011;3799;47.184;8.538;2023-04-08T03:10:50;3.47;;;1.25;;
7515;SDS011;3799;47.184;8.538;2023-04-08T03:13:19;3.10;;;1.50;;
7515;SDS011;3799;47.184;8.538;2023-04-08T03:15:46;2.95;;;1.40;;
7515;SDS011;3799;47.184;8.538;2023-04-08T03:18:14;3.03;;;1.40;;
7515;SDS011;3799;47.184;8.538;2023-04-08T03:20:41;3.78;;;1.60;;
7515;SDS011;3799;47.184;8.538;2023-04-08T03:23:09;4.85;;;1.50;;
7515;SDS011;3799;47.184;8.538;2023-04-08T03:25:36;2.95;;;1.20;;
7515;SDS011;3799;47.184;8.538;2023-04-08T03:28:04;2.53;;;1.20;;
7515;SDS011;3799;47.184;8.538;2023-04-08T03:30:32;2.72;;;1.27;;
7515;SDS011;3799;47.184;8.538;2023-04-08T03:32:59;2.80;;;1.48;;
7515;SDS011;3799;47.184;8.538;2023-04-08T03:35:32;3.45;;;1.52;;
7515;SDS011;3799;47.184;8.538;2023-04-08T03:38:00;3.33;;;1.65;;
7515;SDS011;3799;47.184;8.538;2023-04-08T03:40:28;3.00;;;1.35;;
7515;SDS011;3799;47.184;8.538;2023-04-08T03:42:55;2.95;;;1.30;;
7515;SDS011;3799;47.184;8.538;2023-04-08T03:45:23;2.83;;;1.30;;
7515;SDS011;3799;47.184;8.538;2023-04-08T03:47:50;3.25;;;1.23;;
7515;SDS011;3799;47.184;8.538;2023-04-08T03:50:17;4.18;;;1.65;;
7515;SDS011;3799;47.184;8.538;2023-04-08T03:52:44;3.58;;;1.58;;
7515;SDS011;3799;47.184;8.538;2023-04-08T03:55:11;2.83;;;1.33;;
7515;SDS011;3799;47.184;8.538;2023-04-08T03:57:39;3.03;;;1.58;;
7515;SDS011;3799;47.184;8.538;2023-04-08T04:00:07;4.25;;;1.60;;
7515;SDS011;3799;47.184;8.538;2023-04-08T04:02:34;2.72;;;1.08;;
7515;SDS011;3799;47.184;8.538;2023-04-08T04:05:05;3.38;;;1.40;;
7515;SDS011;3799;47.184;8.538;2023-04-08T04:07:32;3.55;;;1.50;;
7515;SDS011;3799;47.184;8.538;2023-04-08T04:10:00;3.10;;;1.63;;
7515;SDS011;3799;47.184;8.538;2023-04-08T04:12:36;2.15;;;1.20;;
7515;SDS011;3799;47.184;8.538;2023-04-08T04:15:04;4.65;;;1.70;;
7515;SDS011;3799;47.184;8.538;2023-04-08T04:17:32;3.05;;;1.50;;
7515;SDS011;3799;47.184;8.538;2023-04-08T04:19:59;3.13;;;1.40;;
7515;SDS011;3799;47.184;8.538;2023-04-08T04:22:29;3.30;;;1.60;;
7515;SDS011;3799;47.184;8.538;2023-04-08T04:25:10;3.05;;;1.30;;
7515;SDS011;3799;47.184;8.538;2023-04-08T04:27:37;4.20;;;1.92;;
7515;SDS011;3799;47.184;8.538;2023-04-08T04:30:07;3.40;;;1.40;;
7515;SDS011;3799;47.184;8.538;2023-04-08T04:32:36;2.80;;;1.50;;
7515;SDS011;3799;47.184;8.538;2023-04-08T04:35:04;3.72;;;1.70;;
7515;SDS011;3799;47.184;8.538;2023-04-08T04:37:32;3.75;;;1.90;;
7515;SDS011;3799;47.184;8.538;2023-04-08T04:39:59;3.63;;;1.90;;
7515;SDS011;3799;47.184;8.538;2023-04-08T04:42:26;3.75;;;2.00;;
7515;SDS011;3799;47.184;8.538;2023-04-08T04:44:54;2.95;;;1.67;;
7515;SDS011;3799;47.184;8.538;2023-04-08T04:47:24;4.32;;;2.45;;
7515;SDS011;3799;47.184;8.538;2023-04-08T04:49:52;3.35;;;1.75;;
7515;SDS011;3799;47.184;8.538;2023-04-08T04:52:19;3.80;;;2.08;;
7515;SDS011;3799;47.184;8.538;2023-04-08T04:54:46;4.75;;;2.10;;
7515;SDS011;3799;47.184;8.538;2023-04-08T04:57:14;4.38;;;1.88;;
7515;SDS011;3799;47.184;8.538;2023-04-08T04:59:41;3.83;;;1.65;;
7515;SDS011;3799;47.184;8.538;2023-04-08T05:02:08;4.38;;;1.95;;
7515;SDS011;3799;47.184;8.538;2023-04-08T05:04:36;3.85;;;1.73;;
7515;SDS011;3799;47.184;8.538;2023-04-08T05:07:04;4.15;;;1.85;;
7515;SDS011;3799;47.184;8.538;2023-04-08T05:09:31;4.15;;;1.45;;
7515;SDS011;3799;47.184;8.538;2023-04-08T05:11:59;3.70;;;1.77;;
7515;SDS011;3799;47.184;8.538;2023-04-08T05:14:29;3.60;;;1.77;;
7515;SDS011;3799;47.184;8.538;2023-04-08T05:16:57;3.55;;;1.80;;
7515;SDS011;3799;47.184;8.538;2023-04-08T05:19:24;3.45;;;1.60;;
7515;SDS011;3799;47.184;8.538;2023-04-08T05:21:52;3.63;;;1.55;;
7515;SDS011;3799;47.184;8.538;2023-04-08T05:24:19;4.80;;;1.85;;
7515;SDS011;3799;47.184;8.538;2023-04-08T05:26:46;4.78;;;2.00;;
7515;SDS011;3799;47.184;8.538;2023-04-08T05:29:18;3.42;;;1.73;;
7515;SDS011;3799;47.184;8.538;2023-04-08T05:31:47;3.55;;;1.90;;
7515;SDS011;3799;47.184;8.538;2023-04-08T05:34:17;3.45;;;1.60;;
7515;SDS011;3799;47.184;8.538;2023-04-08T05:36:49;4.45;;;2.17;;
7515;SDS011;3799;47.184;8.538;2023-04-08T05:39:19;2.95;;;1.60;;
7515;SDS011;3799;47.184;8.538;2023-04-08T05:41:59;3.85;;;1.90;;
7515;SDS011;3799;47.184;8.538;2023-04-08T05:44:26;3.78;;;1.88;;
7515;SDS011;3799;47.184;8.538;2023-04-08T05:46:54;6.40;;;1.95;;
7515;SDS011;3799;47.184;8.538;2023-04-08T05:49:23;4.22;;;2.05;;
7515;SDS011;3799;47.184;8.538;2023-04-08T05:51:50;3.88;;;1.85;;
7515;SDS011;3799;47.184;8.538;2023-04-08T05:54:18;4.45;;;2.30;;
7515;SDS011;3799;47.184;8.538;2023-04-08T05:56:45;3.53;;;1.80;;
7515;SDS011;3799;47.184;8.538;2023-04-08T05:59:14;5.15;;;2.60;;
7515;SDS011;3799;47.184;8.538;2023-04-08T06:01:42;4.75;;;2.10;;
7515;SDS011;3799;47.184;8.538;2023-04-08T06:04:19;3.70;;;1.88;;
7515;SDS011;3799;47.184;8.538;2023-04-08T06:06:47;5.20;;;2.13;;
7515;SDS011;3799;47.184;8.538;2023-04-08T06:09:14;3.13;;;1.67;;
7515;SDS011;3799;47.184;8.538;2023-04-08T06:11:41;4.03;;;1.98;;
7515;SDS011;3799;47.184;8.538;2023-04-08T06:14:08;3.90;;;1.85;;
7515;SDS011;3799;47.184;8.538;2023-04-08T06:16:36;3.63;;;2.20;;
7515;SDS011;3799;47.184;8.538;2023-04-08T06:19:03;4.63;;;2.17;;
7515;SDS011;3799;47.184;8.538;2023-04-08T06:21:30;3.75;;;2.05;;
7515;SDS011;3799;47.184;8.538;2023-04-08T06:23:58;4.45;;;2.28;;
7515;SDS011;3799;47.184;8.538;2023-04-08T06:26:25;4.47;;;2.30;;
7515;SDS011;3799;47.184;8.538;2023-04-08T06:28:54;4.50;;;2.30;;
7515;SDS011;3799;47.184;8.538;2023-04-08T06:31:21;5.97;;;2.17;;
7515;SDS011;3799;47.184;8.538;2023-04-08T06:33:49;4.93;;;2.65;;
7515;SDS011;3799;47.184;8.538;2023-04-08T06:36:18;4.70;;;2.20;;
7515;SDS011;3799;47.184;8.538;2023-04-08T06:38:45;4.28;;;2.33;;
7515;SDS011;3799;47.184;8.538;2023-04-08T06:41:12;4.70;;;2.47;;
7515;SDS011;3799;47.184;8.538;2023-04-08T06:43:40;5.75;;;2.55;;
7515;SDS011;3799;47.184;8.538;2023-04-08T06:46:07;4.63;;;2.60;;
7515;SDS011;3799;47.184;8.538;2023-04-08T06:48:35;4.38;;;2.70;;
7515;SDS011;3799;47.184;8.538;2023-04-08T06:51:03;3.88;;;2.28;;
7515;SDS011;3799;47.184;8.538;2023-04-08T06:53:30;4.72;;;3.00;;
7515;SDS011;3799;47.184;8.538;2023-04-08T06:55:59;4.65;;;2.60;;
7515;SDS011;3799;47.184;8.538;2023-04-08T06:58:27;5.00;;;2.75;;
7515;SDS011;3799;47.184;8.538;2023-04-08T07:01:00;4.97;;;2.67;;
7515;SDS011;3799;47.184;8.538;2023-04-08T07:03:29;5.68;;;3.13;;
7515;SDS011;3799;47.184;8.538;2023-04-08T07:05:58;5.85;;;2.95;;
7515;SDS011;3799;47.184;8.538;2023-04-08T07:08:25;4.82;;;2.85;;
7515;SDS011;3799;47.184;8.538;2023-04-08T07:10:52;6.32;;;3.03;;
7515;SDS011;3799;47.184;8.538;2023-04-08T07:13:21;6.47;;;3.22;;
7515;SDS011;3799;47.184;8.538;2023-04-08T07:15:49;5.70;;;3.25;;
7515;SDS011;3799;47.184;8.538;2023-04-08T07:18:17;5.22;;;2.90;;
7515;SDS011;3799;47.184;8.538;2023-04-08T07:20:49;4.50;;;2.88;;
7515;SDS011;3799;47.184;8.538;2023-04-08T07:23:17;6.85;;;3.70;;
7515;SDS011;3799;47.184;8.538;2023-04-08T07:25:46;5.85;;;3.45;;
7515;SDS011;3799;47.184;8.538;2023-04-08T07:28:14;7.43;;;3.53;;
7515;SDS011;3799;47.184;8.538;2023-04-08T07:30:42;6.95;;;3.65;;
7515;SDS011;3799;47.184;8.538;2023-04-08T07:33:09;6.07;;;3.35;;
7515;SDS011;3799;47.184;8.538;2023-04-08T07:35:37;6.45;;;3.17;;
7515;SDS011;3799;47.184;8.538;2023-04-08T07:38:05;4.90;;;3.10;;
7515;SDS011;3799;47.184;8.538;2023-04-08T07:40:37;5.50;;;3.35;;
7515;SDS011;3799;47.184;8.538;2023-04-08T07:43:04;7.03;;;3.78;;
7515;SDS011;3799;47.184;8.538;2023-04-08T07:45:32;6.85;;;3.83;;
7515;SDS011;3799;47.184;8.538;2023-04-08T07:47:59;9.10;;;4.32;;
7515;SDS011;3799;47.184;8.538;2023-04-08T07:50:27;8.05;;;4.85;;
7515;SDS011;3799;47.184;8.538;2023-04-08T07:52:55;6.72;;;4.00;;
7515;SDS011;3799;47.184;8.538;2023-04-08T07:55:22;8.23;;;4.68;;
7515;SDS011;3799;47.184;8.538;2023-04-08T07:57:50;8.55;;;4.45;;
7515;SDS011;3799;47.184;8.538;2023-04-08T08:00:17;9.90;;;4.57;;
7515;SDS011;3799;47.184;8.538;2023-04-08T08:02:47;7.88;;;4.80;;
7515;SDS011;3799;47.184;8.538;2023-04-08T08:05:14;7.90;;;4.55;;
7515;SDS011;3799;47.184;8.538;2023-04-08T08:07:42;7.10;;;4.25;;
7515;SDS011;3799;47.184;8.538;2023-04-08T08:10:12;7.88;;;4.80;;
7515;SDS011;3799;47.184;8.538;2023-04-08T08:12:40;6.88;;;4.45;;
7515;SDS011;3799;47.184;8.538;2023-04-08T08:15:07;7.40;;;4.57;;
7515;SDS011;3799;47.184;8.538;2023-04-08T08:17:35;7.50;;;4.43;;
7515;SDS011;3799;47.184;8.538;2023-04-08T08:20:04;6.70;;;3.67;;
7515;SDS011;3799;47.184;8.538;2023-04-08T08:22:33;7.75;;;4.35;;
7515;SDS011;3799;47.184;8.538;2023-04-08T08:25:09;8.43;;;4.65;;
7515;SDS011;3799;47.184;8.538;2023-04-08T08:27:37;7.30;;;4.70;;
7515;SDS011;3799;47.184;8.538;2023-04-08T08:32:35;6.28;;;3.67;;
7515;SDS011;3799;47.184;8.538;2023-04-08T08:35:03;6.43;;;4.38;;
7515;SDS011;3799;47.184;8.538;2023-04-08T08:37:31;6.72;;;4.38;;
7515;SDS011;3799;47.184;8.538;2023-04-08T08:39:58;10.43;;;4.72;;
7515;SDS011;3799;47.184;8.538;2023-04-08T08:42:25;9.48;;;4.90;;
7515;SDS011;3799;47.184;8.538;2023-04-08T08:44:53;7.53;;;4.90;;
7515;SDS011;3799;47.184;8.538;2023-04-08T08:47:20;7.03;;;4.38;;
7515;SDS011;3799;47.184;8.538;2023-04-08T08:49:48;7.85;;;4.65;;
7515;SDS011;3799;47.184;8.538;2023-04-08T08:52:16;7.75;;;4.68;;
7515;SDS011;3799;47.184;8.538;2023-04-08T08:54:44;7.70;;;4.57;;
7515;SDS011;3799;47.184;8.538;2023-04-08T08:57:18;7.90;;;4.90;;
7515;SDS011;3799;47.184;8.538;2023-04-08T08:59:46;6.70;;;3.78;;
7515;SDS011;3799;47.184;8.538;2023-04-08T09:02:24;6.65;;;4.07;;
7515;SDS011;3799;47.184;8.538;2023-04-08T09:05:03;5.90;;;3.67;;
7515;SDS011;3799;47.184;8.538;2023-04-08T09:07:34;6.72;;;4.22;;
7515;SDS011;3799;47.184;8.538;2023-04-08T09:10:02;6.05;;;3.42;;
7515;SDS011;3799;47.184;8.538;2023-04-08T09:12:30;5.18;;;3.35;;
7515;SDS011;3799;47.184;8.538;2023-04-08T09:15:07;5.88;;;3.17;;
7515;SDS011;3799;47.184;8.538;2023-04-08T09:17:36;5.95;;;3.35;;
7515;SDS011;3799;47.184;8.538;2023-04-08T09:20:09;5.80;;;3.60;;
7515;SDS011;3799;47.184;8.538;2023-04-08T09:25:26;6.38;;;3.45;;
7515;SDS011;3799;47.184;8.538;2023-04-08T09:27:55;5.05;;;3.42;;
7515;SDS011;3799;47.184;8.538;2023-04-08T09:30:24;4.60;;;2.90;;
7515;SDS011;3799;47.184;8.538;2023-04-08T09:32:54;7.03;;;3.70;;
7515;SDS011;3799;47.184;8.538;2023-04-08T09:35:24;5.40;;;3.50;;
7515;SDS011;3799;47.184;8.538;2023-04-08T09:37:52;6.38;;;3.60;;
7515;SDS011;3799;47.184;8.538;2023-04-08T09:40:20;5.38;;;3.17;;
7515;SDS011;3799;47.184;8.538;2023-04-08T09:45:19;5.72;;;2.90;;
7515;SDS011;3799;47.184;8.538;2023-04-08T09:50:15;4.95;;;3.38;;
7515;SDS011;3799;47.184;8.538;2023-04-08T09:52:47;6.13;;;3.22;;
7515;SDS011;3799;47.184;8.538;2023-04-08T09:55:21;5.40;;;3.40;;
7515;SDS011;3799;47.184;8.538;2023-04-08T10:00:22;6.75;;;3.38;;
7515;SDS011;3799;47.184;8.538;2023-04-08T10:05:29;5.60;;;3.70;;
7515;SDS011;3799;47.184;8.538;2023-04-08T10:07:57;4.78;;;2.83;;
7515;SDS011;3799;47.184;8.538;2023-04-08T10:13:00;6.55;;;4.20;;
7515;SDS011;3799;47.184;8.538;2023-04-08T10:15:29;5.00;;;3.55;;
7515;SDS011;3799;47.184;8.538;2023-04-08T10:23:03;6.38;;;3.67;;
7515;SDS011;3799;47.184;8.538;2023-04-08T10:25:34;5.97;;;3.47;;
7515;SDS011;3799;47.184;8.538;2023-04-08T10:30:45;6.40;;;4.45;;
7515;SDS011;3799;47.184;8.538;2023-04-08T10:35:48;6.43;;;3.60;;
7515;SDS011;3799;47.184;8.538;2023-04-08T10:38:20;7.00;;;4.72;;
7515;SDS011;3799;47.184;8.538;2023-04-08T10:40:48;6.22;;;4.30;;
7515;SDS011;3799;47.184;8.538;2023-04-08T10:43:17;6.65;;;3.78;;
7515;SDS011;3799;47.184;8.538;2023-04-08T10:45:44;6.85;;;4.07;;
7515;SDS011;3799;47.184;8.538;2023-04-08T10:48:21;7.45;;;4.35;;
7515;SDS011;3799;47.184;8.538;2023-04-08T10:53:27;6.18;;;4.22;;
7515;SDS011;3799;47.184;8.538;2023-04-08T10:56:04;5.40;;;3.42;;
7515;SDS011;3799;47.184;8.538;2023-04-08T10:58:33;5.70;;;3.70;;
7515;SDS011;3799;47.184;8.538;2023-04-08T11:01:05;6.80;;;4.50;;
7515;SDS011;3799;47.184;8.538;2023-04-08T11:03:34;7.35;;;3.25;;
7515;SDS011;3799;47.184;8.538;2023-04-08T11:06:04;4.25;;;2.65;;
7515;SDS011;3799;47.184;8.538;2023-04-08T11:08:32;5.50;;;3.13;;
7515;SDS011;3799;47.184;8.538;2023-04-08T11:11:02;5.32;;;3.47;;
7515;SDS011;3799;47.184;8.538;2023-04-08T11:13:44;6.60;;;3.50;;
7515;SDS011;3799;47.184;8.538;2023-04-08T11:16:22;6.00;;;3.65;;
7515;SDS011;3799;47.184;8.538;2023-04-08T11:18:50;7.85;;;3.47;;
7515;SDS011;3799;47.184;8.538;2023-04-08T11:21:24;5.63;;;3.42;;
7515;SDS011;3799;47.184;8.538;2023-04-08T11:23:55;5.18;;;3.30;;
7515;SDS011;3799;47.184;8.538;2023-04-08T11:26:23;5.53;;;3.35;;
7515;SDS011;3799;47.184;8.538;2023-04-08T11:28:54;5.22;;;4.13;;
7515;SDS011;3799;47.184;8.538;2023-04-08T11:31:23;5.00;;;3.40;;
7515;SDS011;3799;47.184;8.538;2023-04-08T11:33:52;4.45;;;2.78;;
7515;SDS011;3799;47.184;8.538;2023-04-08T11:36:21;4.60;;;2.63;;
7515;SDS011;3799;47.184;8.538;2023-04-08T11:38:48;6.47;;;3.03;;
7515;SDS011;3799;47.184;8.538;2023-04-08T11:41:15;5.13;;;2.58;;
7515;SDS011;3799;47.184;8.538;2023-04-08T11:43:52;5.60;;;3.35;;
7515;SDS011;3799;47.184;8.538;2023-04-08T11:46:22;4.82;;;3.10;;
7515;SDS011;3799;47.184;8.538;2023-04-08T11:48:56;5.68;;;3.20;;
7515;SDS011;3799;47.184;8.538;2023-04-08T11:51:28;5.00;;;3.00;;
7515;SDS011;3799;47.184;8.538;2023-04-08T11:53:55;3.63;;;1.80;;
7515;SDS011;3799;47.184;8.538;2023-04-08T11:56:23;3.45;;;2.30;;
7515;SDS011;3799;47.184;8.538;2023-04-08T11:58:51;5.97;;;3.17;;
7515;SDS011;3799;47.184;8.538;2023-04-08T12:01:19;5.13;;;2.33;;
7515;SDS011;3799;47.184;8.538;2023-04-08T12:03:53;4.88;;;3.08;;
7515;SDS011;3799;47.184;8.538;2023-04-08T12:06:22;3.75;;;2.33;;
7515;SDS011;3799;47.184;8.538;2023-04-08T12:08:50;4.50;;;2.67;;
7515;SDS011;3799;47.184;8.538;2023-04-08T12:11:20;3.63;;;2.38;;
7515;SDS011;3799;47.184;8.538;2023-04-08T12:13:48;3.55;;;2.22;;
7515;SDS011;3799;47.184;8.538;2023-04-08T12:16:17;4.53;;;2.42;;
7515;SDS011;3799;47.184;8.538;2023-04-08T12:18:45;3.55;;;2.40;;
7515;SDS011;3799;47.184;8.538;2023-04-08T12:21:13;4.75;;;2.75;;
7515;SDS011;3799;47.184;8.538;2023-04-08T12:23:40;4.90;;;2.50;;
7515;SDS011;3799;47.184;8.538;2023-04-08T12:26:07;3.92;;;2.50;;
7515;SDS011;3799;47.184;8.538;2023-04-08T12:28:35;4.82;;;2.60;;
7515;SDS011;3799;47.184;8.538;2023-04-08T12:31:02;3.30;;;1.85;;
7515;SDS011;3799;47.184;8.538;2023-04-08T12:33:30;4.65;;;2.47;;
7515;SDS011;3799;47.184;8.538;2023-04-08T12:35:57;4.18;;;2.60;;
7515;SDS011;3799;47.184;8.538;2023-04-08T12:38:25;4.72;;;2.85;;
7515;SDS011;3799;47.184;8.538;2023-04-08T12:40:53;5.05;;;2.92;;
7515;SDS011;3799;47.184;8.538;2023-04-08T12:43:21;5.13;;;2.90;;
7515;SDS011;3799;47.184;8.538;2023-04-08T12:45:49;5.13;;;2.75;;
7515;SDS011;3799;47.184;8.538;2023-04-08T12:48:17;4.78;;;2.38;;
7515;SDS011;3799;47.184;8.538;2023-04-08T12:50:46;4.65;;;2.75;;
7515;SDS011;3799;47.184;8.538;2023-04-08T12:53:13;4.80;;;2.88;;
7515;SDS011;3799;47.184;8.538;2023-04-08T12:55:41;4.60;;;2.90;;
7515;SDS011;3799;47.184;8.538;2023-04-08T12:58:10;4.70;;;2.65;;
7515;SDS011;3799;47.184;8.538;2023-04-08T13:00:37;4.57;;;2.85;;
7515;SDS011;3799;47.184;8.538;2023-04-08T13:03:04;3.60;;;2.15;;
7515;SDS011;3799;47.184;8.538;2023-04-08T13:05:32;4.70;;;2.70;;
7515;SDS011;3799;47.184;8.538;2023-04-08T13:08:09;5.05;;;2.60;;
7515;SDS011;3799;47.184;8.538;2023-04-08T13:10:38;4.18;;;2.95;;
7515;SDS011;3799;47.184;8.538;2023-04-08T13:13:07;6.20;;;3.72;;
7515;SDS011;3799;47.184;8.538;2023-04-08T13:15:35;5.82;;;3.80;;
7515;SDS011;3799;47.184;8.538;2023-04-08T13:18:04;5.82;;;3.38;;
7515;SDS011;3799;47.184;8.538;2023-04-08T13:20:31;4.95;;;3.05;;
7515;SDS011;3799;47.184;8.538;2023-04-08T13:22:59;4.05;;;2.10;;
7515;SDS011;3799;47.184;8.538;2023-04-08T13:25:27;4.53;;;2.70;;
7515;SDS011;3799;47.184;8.538;2023-04-08T13:27:58;5.22;;;3.40;;
7515;SDS011;3799;47.184;8.538;2023-04-08T13:30:28;5.57;;;3.88;;
7515;SDS011;3799;47.184;8.538;2023-04-08T13:33:08;6.93;;;4.22;;
7515;SDS011;3799;47.184;8.538;2023-04-08T13:35:35;6.70;;;4.40;;
7515;SDS011;3799;47.184;8.538;2023-04-08T13:38:03;5.05;;;3.25;;
7515;SDS011;3799;47.184;8.538;2023-04-08T13:40:31;4.75;;;3.05;;
7515;SDS011;3799;47.184;8.538;2023-04-08T13:42:59;5.60;;;3.50;;
7515;SDS011;3799;47.184;8.538;2023-04-08T13:45:27;5.90;;;3.97;;
7515;SDS011;3799;47.184;8.538;2023-04-08T13:47:55;5.70;;;3.65;;
7515;SDS011;3799;47.184;8.538;2023-04-08T13:52:52;5.60;;;3.60;;
7515;SDS011;3799;47.184;8.538;2023-04-08T13:55:19;6.07;;;3.70;;
7515;SDS011;3799;47.184;8.538;2023-04-08T13:57:47;5.57;;;3.50;;
7515;SDS011;3799;47.184;8.538;2023-04-08T14:00:15;7.22;;;2.50;;
7515;SDS011;3799;47.184;8.538;2023-04-08T14:02:43;5.45;;;3.28;;
7515;SDS011;3799;47.184;8.538;2023-04-08T14:05:11;5.22;;;3.25;;
7515;SDS011;3799;47.184;8.538;2023-04-08T14:07:38;6.82;;;4.00;;
7515;SDS011;3799;47.184;8.538;2023-04-08T14:10:06;5.47;;;3.65;;
7515;SDS011;3799;47.184;8.538;2023-04-08T14:12:34;5.57;;;3.03;;
7515;SDS011;3799;47.184;8.538;2023-04-08T14:15:04;4.78;;;3.03;;
7515;SDS011;3799;47.184;8.538;2023-04-08T14:17:32;5.50;;;3.03;;
7515;SDS011;3799;47.184;8.538;2023-04-08T14:20:02;5.72;;;3.33;;
7515;SDS011;3799;47.184;8.538;2023-04-08T14:22:32;4.72;;;2.75;;
7515;SDS011;3799;47.184;8.538;2023-04-08T14:25:00;5.38;;;3.25;;
7515;SDS011;3799;47.184;8.538;2023-04-08T14:27:28;5.78;;;3.35;;
7515;SDS011;3799;47.184;8.538;2023-04-08T14:29:55;4.93;;;3.05;;
7515;SDS011;3799;47.184;8.538;2023-04-08T14:32:23;4.75;;;2.45;;
7515;SDS011;3799;47.184;8.538;2023-04-08T14:34:50;5.95;;;3.35;;
7515;SDS011;3799;47.184;8.538;2023-04-08T14:37:17;6.00;;;3.60;;
7515;SDS011;3799;47.184;8.538;2023-04-08T14:39:44;6.25;;;3.42;;
7515;SDS011;3799;47.184;8.538;2023-04-08T14:42:12;6.50;;;3.92;;
7515;SDS011;3799;47.184;8.538;2023-04-08T14:44:44;6.32;;;3.97;;
7515;SDS011;3799;47.184;8.538;2023-04-08T14:47:11;7.97;;;4.97;;
7515;SDS011;3799;47.184;8.538;2023-04-08T14:49:39;7.10;;;4.20;;
7515;SDS011;3799;47.184;8.538;2023-04-08T14:52:06;6.65;;;4.10;;
7515;SDS011;3799;47.184;8.538;2023-04-08T14:54:33;7.88;;;4.28;;
7515;SDS011;3799;47.184;8.538;2023-04-08T14:57:05;9.77;;;4.18;;
7515;SDS011;3799;47.184;8.538;2023-04-08T14:59:32;9.02;;;4.50;;
7515;SDS011;3799;47.184;8.538;2023-04-08T15:01:59;6.80;;;3.70;;
7515;SDS011;3799;47.184;8.538;2023-04-08T15:04:27;6.53;;;4.10;;
7515;SDS011;3799;47.184;8.538;2023-04-08T15:06:55;6.75;;;3.75;;
7515;SDS011;3799;47.184;8.538;2023-04-08T15:09:25;5.72;;;3.20;;
7515;SDS011;3799;47.184;8.538;2023-04-08T15:11:52;4.38;;;3.15;;
7515;SDS011;3799;47.184;8.538;2023-04-08T15:14:19;6.50;;;3.85;;
7515;SDS011;3799;47.184;8.538;2023-04-08T15:16:47;6.03;;;3.25;;
7515;SDS011;3799;47.184;8.538;2023-04-08T15:19:14;6.20;;;3.10;;
7515;SDS011;3799;47.184;8.538;2023-04-08T15:21:44;7.18;;;4.30;;
7515;SDS011;3799;47.184;8.538;2023-04-08T15:24:12;6.57;;;3.55;;
7515;SDS011;3799;47.184;8.538;2023-04-08T15:26:47;6.15;;;3.33;;
7515;SDS011;3799;47.184;8.538;2023-04-08T15:29:26;6.25;;;3.60;;
7515;SDS011;3799;47.184;8.538;2023-04-08T15:31:57;7.90;;;3.78;;
7515;SDS011;3799;47.184;8.538;2023-04-08T15:34:24;5.95;;;3.47;;
7515;SDS011;3799;47.184;8.538;2023-04-08T15:37:04;7.18;;;4.20;;
7515;SDS011;3799;47.184;8.538;2023-04-08T15:39:35;6.72;;;4.20;;
7515;SDS011;3799;47.184;8.538;2023-04-08T15:42:06;11.07;;;4.28;;
7515;SDS011;3799;47.184;8.538;2023-04-08T15:44:48;7.20;;;4.28;;
7515;SDS011;3799;47.184;8.538;2023-04-08T15:47:15;7.07;;;4.38;;
7515;SDS011;3799;47.184;8.538;2023-04-08T15:49:51;6.78;;;4.38;;
7515;SDS011;3799;47.184;8.538;2023-04-08T15:52:18;6.97;;;4.47;;
7515;SDS011;3799;47.184;8.538;2023-04-08T15:54:46;8.57;;;5.03;;
7515;SDS011;3799;47.184;8.538;2023-04-08T15:57:14;6.38;;;4.03;;
7515;SDS011;3799;47.184;8.538;2023-04-08T15:59:43;6.95;;;4.20;;
7515;SDS011;3799;47.184;8.538;2023-04-08T16:02:10;7.63;;;4.53;;
7515;SDS011;3799;47.184;8.538;2023-04-08T16:04:38;7.05;;;4.15;;
7515;SDS011;3799;47.184;8.538;2023-04-08T16:07:06;7.85;;;4.22;;
7515;SDS011;3799;47.184;8.538;2023-04-08T16:09:34;6.65;;;3.72;;
7515;SDS011;3799;47.184;8.538;2023-04-08T16:12:07;8.05;;;4.05;;
7515;SDS011;3799;47.184;8.538;2023-04-08T16:14:35;7.82;;;4.70;;